Flight Track Log - Related Links

Times and Time Zones

All times are in EDT time to prevent confusion due to time zone crossing. See the AAL991 flight status page for this flight to view local times or setup timezone preferences in your user account.

Time Position Orientation Groundspeed Altitude Reporting Facility
EDT Latitude Longitude Course Direction KTS MPH feet Rate Location/Type
Sat 11:38:57 PM 25.7990 -80.2800 40° Northeast 10 12  Level FlightAware ADS-B
Sat 11:41:25 PM 25.7990 -80.2790 90° East 2 2 140 Level FlightAware ADS-B
Sat 11:44:00 PM 25.6942 -79.9573 104° East  Level FlightAware Approximate
Sat 11:44:07 PM 25.8000 -80.2790 104° East 20 23  Level FlightAware ADS-B
Sat 11:44:28 PM 25.8000 -80.2800 270° West 19 22 233 Level FlightAware ADS-B
Sat 11:46:53 PM 25.7990 -80.2860 104° East 19 22 244 Level FlightAware ADS-B
Sat 11:47:00 PM 25.6957 -79.9641 104° East  Level FlightAware Approximate
Sat 11:47:59 PM 25.7990 -80.2880 270° West 20 23  Level FlightAware ADS-B
Sat 11:48:43 PM 25.7990 -80.2890 270° West 25 29 468 Level FlightAware ADS-B
Sat 11:48:53 PM 25.7990 -80.2900 270° West 26 30 578 Level FlightAware ADS-B
Sat 11:49:11 PM 25.7990 -80.2910 270° West 27 31 610 Level FlightAware ADS-B
Sat 11:49:30 PM 25.7990 -80.2920 270° West 31 36 679 Level FlightAware ADS-B
Sat 11:49:52 PM 25.7990 -80.2940 270° West 32 37 771 Level FlightAware ADS-B
Sat 11:50:20 PM 25.7990 -80.2950 270° West 29 33 915 Level FlightAware ADS-B
Sat 11:50:40 PM 25.8000 -80.2930 61° Northeast 51 59 1,200 Level FlightAware ADS-B
Sat 11:50:54 PM 25.8000 -80.2880 90° East 110 127 1,543 Level FlightAware ADS-B
Sat 11:51:20 PM 25.8000 -80.2760 90° East 110 127 1,929 Level FlightAware ADS-B
Sat 11:51:50 PM 25.7990 -80.2410 92° East 165 190 1,800 2,681 Climbing FlightAware ADS-B
Sat 11:52:07 PM 25.7930 -80.2270 115° Southeast 184 212 2,100 1,317 Climbing FlightAware ADS-B
Sat 11:52:31 PM 25.7820 -80.2040 118° Southeast 218 251 2,700 1,962 Climbing FlightAware ADS-B
Sat 11:52:59 PM 25.7680 -80.1770 120° Southeast 232 267 3,800 2,357 Climbing FlightAware ADS-B
Sat 11:53:27 PM 25.7510 -80.1470 122° Southeast 255 293 4,900 2,679 Climbing FlightAware ADS-B
Sat 11:53:55 PM 25.7420 -80.1120 106° East 259 298 6,300 3,120 Climbing FlightAware ADS-B
Sat 11:54:17 PM 25.7350 -80.0830 105° East 261 300 7,500 2,939 Climbing FlightAware ADS-B
Sat 11:54:44 PM 25.7270 -80.0480 104° East 271 312 8,700 2,714 Climbing FlightAware ADS-B
Sat 11:54:59 PM 25.7220 -80.0270 105° East 273 314 9,400 2,509 Climbing FlightAware ADS-B
Sat 11:55:39 PM 25.7090 -79.9710 104° East 291 335 11,000 1,605 Climbing FlightAware ADS-B
Sat 11:56:25 PM 25.6930 -79.8970 103° East 354 407 11,700 1,379 Climbing FlightAware ADS-B
Sat 11:57:06 PM 25.6760 -79.8220 104° East 381 438 13,000 1,976 Climbing FlightAware ADS-B
Sat 11:57:47 PM 25.6590 -79.7410 103° East 403 464 14,400 2,571 Climbing FlightAware ADS-B
Sat 11:58:30 PM 25.6400 -79.6560 104° East 402 463 16,600 2,659 Climbing FlightAware ADS-B
Sat 11:59:15 PM 25.6190 -79.5630 104° East 413 475 18,300 2,259 Climbing FlightAware ADS-B
Sat 11:59:55 PM 25.6000 -79.4790 104° East 423 487 19,800 2,289 Climbing FlightAware ADS-B
Sun 12:00:31 AM 25.5830 -79.4030 104° East 425 489 21,200 2,132 Climbing FlightAware ADS-B
Sun 12:01:11 AM 25.5640 -79.3180 104° East 431 496 22,500 1,929 Climbing FlightAware ADS-B
Sun 12:01:55 AM 25.5430 -79.2230 104° East 440 506 23,900 1,756 Climbing FlightAware ADS-B
Sun 12:02:33 AM 25.5240 -79.1430 105° East 447 514 24,900 1,500 Climbing FlightAware ADS-B
Sun 12:03:15 AM 25.4950 -79.0500 109° East 461 531 25,900 1,357 Climbing FlightAware ADS-B
Sun 12:03:57 AM 25.4490 -78.9620 120° Southeast 472 543 26,800 1,465 Climbing FlightAware ADS-B
Sun 12:04:41 AM 25.4050 -78.8700 118° Southeast 475 547 28,000 929 Climbing FlightAware ADS-B
Sun 12:05:21 AM 25.3700 -78.7940 117° Southeast 474 545 28,100 1,774 Climbing FlightAware ADS-B
Sun 12:06:36 AM 25.2880 -78.6260 118° Southeast 469 540 31,400 1,667 Climbing FlightAware ADS-B
Sun 12:07:27 AM 25.2440 -78.5380 119° Southeast 469 540 31,600 121 Climbing FlightAware ADS-B
Sun 12:08:15 AM 25.2010 -78.4530 119° Southeast 469 540 31,600 627 Level FlightAware ADS-B
Sun 12:09:41 AM 25.0975 -78.2703 119° Southeast 468 539 33,000 571 Climbing Miami Center
Sun 12:10:42 AM 25.0339 -78.1411 119° Southeast 468 539 33,000  Level Miami Center
Sun 12:11:42 AM 24.9681 -78.0164 120° Southeast 468 539 33,000  Level Miami Center
Sun 12:12:41 AM 24.9042 -77.8900 119° Southeast 468 539 33,000  Level Miami Center
Sun 12:13:40 AM 24.8361 -77.7633 121° Southeast 468 539 33,000  Level Miami Center
Sun 12:14:41 AM 24.7719 -77.6369 119° Southeast 468 539 33,000  Level Miami Center
Sun 12:15:39 AM 24.6975 -77.4969 120° Southeast 468 539 33,000  Level Miami Center
Sun 12:16:42 AM 24.6353 -77.3733 119° Southeast 468 539 33,000  Level Miami Center
Sun 12:17:42 AM 24.5731 -77.2472 118° Southeast 468 539 33,000  Level Miami Center
Sun 12:18:42 AM 24.5083 -77.1239 120° Southeast 468 539 33,000  Level Miami Center
Sun 12:19:42 AM 24.4417 -76.9981 120° Southeast 468 539 33,000  Level Miami Center
Sun 12:20:42 AM 24.3769 -76.8747 120° Southeast 468 539 33,000  Level Miami Center
Sun 12:21:42 AM 24.3122 -76.7494 120° Southeast 468 539 33,000  Level Miami Center
Sun 12:22:42 AM 24.2450 -76.6242 120° Southeast 468 539 33,000  Level Miami Center
Sun 12:23:42 AM 24.1822 -76.5058 120° Southeast 463 533 33,000  Level Miami Center
Sun 12:24:42 AM 24.1150 -76.3783 120° Southeast 468 539 33,000  Level Miami Center
Sun 12:25:52 AM 24.0497 -76.2581 121° Southeast 468 539 33,000  Level Miami Center
Sun 12:26:53 AM 23.9781 -76.1219 120° Southeast 468 539 33,000  Level Miami Center
Sun 12:27:52 AM 23.9125 -75.9950 119° Southeast 468 539 33,000  Level Miami Center
Sun 12:28:52 AM 23.8469 -75.8728 120° Southeast 468 539 33,000  Level Miami Center
Sun 12:29:52 AM 23.7792 -75.7486 121° Southeast 468 539 33,000  Level Miami Center
Sun 12:30:52 AM 23.7133 -75.6219 120° Southeast 468 539 33,000  Level Miami Center
Sun 12:31:54 AM 23.6456 -75.4978 121° Southeast 468 539 33,000  Level Miami Center
Sun 12:32:53 AM 23.5794 -75.3761 121° Southeast 463 533 33,000  Level Miami Center
Sun 12:33:54 AM 23.5114 -75.2525 121° Southeast 468 539 33,000  Level Miami Center
Sun 12:34:51 AM 23.4453 -75.1308 121° Southeast 468 539 33,000  Level Miami Center
Sun 12:35:52 AM 23.3769 -75.0075 121° Southeast 468 539 33,000  Level Miami Center
Sun 12:36:54 AM 23.3106 -74.8861 121° Southeast 468 539 33,000  Level Miami Center
Sun 12:37:52 AM 23.2419 -74.7606 121° Southeast 468 539 33,000  Level Miami Center
Sun 12:38:52 AM 23.1733 -74.6375 121° Southeast 468 539 33,000  Level Miami Center
Sun 12:39:51 AM 23.1047 -74.5122 121° Southeast 468 539 33,000  Level Miami Center
Sun 12:40:54 AM 23.0336 -74.3894 122° Southeast 468 539 33,000  Level Miami Center
Sun 12:41:54 AM 22.9606 -74.2531 120° Southeast 468 539 33,000  Level Miami Center
Sun 12:42:54 AM 22.8892 -74.1283 122° Southeast 473 544 33,000  Level Miami Center
Sun 12:43:51 AM 22.8222 -74.0014 120° Southeast 479 551 33,000  Level Miami Center
Sun 12:44:51 AM 22.7486 -73.8747 122° Southeast 489 563 33,000  Level Miami Center
Sun 12:45:53 AM 22.6750 -73.7481 122° Southeast 489 563 33,000  Level Miami Center
Sun 12:46:53 AM 22.6119 -73.6214 118° Southeast 489 563 33,000  Level Miami Center
Sun 12:47:54 AM 22.5383 -73.4994 123° Southeast 489 563 33,000  Level Miami Center
Sun 12:48:51 AM 22.4664 -73.3733 122° Southeast 489 563 33,000  Level Miami Center
Sun 12:49:53 AM 22.3947 -73.2517 122° Southeast 489 563 33,000  Level Miami Center
Sun 12:50:51 AM 22.3250 -73.1281 121° Southeast 489 563 33,000  Level Miami Center
Sun 12:51:51 AM 22.2550 -73.0067 122° Southeast 489 563 33,000  Level Miami Center
Sun 12:52:51 AM 22.1869 -72.8808 120° Southeast 489 563 33,000  Level Miami Center
Sun 12:53:54 AM 22.1211 -72.7594 120° Southeast 484 557 33,000  Level Miami Center
Sun 12:54:51 AM 22.0469 -72.6342 123° Southeast 484 557 33,000  Level Miami Center
Sun 12:55:52 AM 21.9767 -72.5111 122° Southeast 484 557 33,000  Level Miami Center
Sun 12:56:52 AM 21.9042 -72.3883 122° Southeast 489 563 33,000  Level Miami Center
Sun 12:57:51 AM 21.8336 -72.2633 121° Southeast 489 563 33,000  Level Miami Center
Sun 12:58:52 AM 21.7631 -72.1406 122° Southeast 489 563 33,000  Level Miami Center
Sun 12:59:52 AM 21.6903 -72.0181 123° Southeast 489 563 33,000  Level Miami Center
Sun 01:00:52 AM 21.6197 -71.8958 122° Southeast 489 563 33,000  Level Miami Center
Sun 01:01:51 AM 21.5467 -71.7692 122° Southeast 489 563 33,000  Level Miami Center
Sun 01:02:52 AM 21.4736 -71.6450 122° Southeast 489 563 33,000  Level Miami Center
Sun 01:03:54 AM 21.4028 -71.5228 122° Southeast 489 563 33,000  Level Miami Center
Sun 01:04:54 AM 21.3272 -71.3944 122° Southeast 494 568 33,000  Level Miami Center
Sun 01:05:54 AM 21.2519 -71.2708 123° Southeast 494 568 33,000 308 Level Miami Center
Sun 01:06:51 AM 21.1872 -71.1556 121° Southeast 494 568 33,600 756 Climbing Miami Center
Sun 01:07:53 AM 21.1158 -71.0297 121° Southeast 494 568 34,500 683 Climbing Miami Center
Sun 01:08:54 AM 21.0400 -70.9019 122° Southeast 504 580 35,000 248 Climbing Miami Center
Sun 01:09:54 AM 20.9661 -70.7742 122° Southeast 504 580 35,000  Level Miami Center
Sun 01:10:54 AM 20.8903 -70.6489 123° Southeast 504 580 35,000  Level Miami Center
Sun 01:11:52 AM 20.8186 -70.5236 121° Southeast 504 580 35,000  Level Miami Center
Sun 01:12:52 AM 20.7447 -70.4031 123° Southeast 504 580 35,000  Level Miami Center
Sun 01:13:53 AM 20.6708 -70.2781 122° Southeast 504 580 35,000  Level Miami Center
Sun 01:14:54 AM 20.5967 -70.1556 123° Southeast 494 568 35,000  Level Miami Center
Sun 01:20:53 AM 20.1440 -69.3840 123° Southeast 501 577 35,000  Level FlightAware ADS-B
Sun 01:21:30 AM 20.1050 -69.3180 122° Southeast 501 577 35,000  Level FlightAware ADS-B
Sun 01:22:18 AM 20.0550 -69.2330 122° Southeast 501 577 35,000  Level FlightAware ADS-B
Sun 01:22:57 AM 19.9840 -69.1230 124° Southeast 501 577 35,000  Level FlightAware ADS-B
Sun 01:23:42 AM 19.9280 -69.0320 123° Southeast 501 577 35,000  Level FlightAware ADS-B
Sun 01:24:19 AM 19.8800 -68.9540 123° Southeast 499 574 35,000  Level FlightAware ADS-B
Sun 01:25:06 AM 19.8170 -68.8640 127° Southeast 496 571 35,000  Level FlightAware ADS-B
Sun 01:25:47 AM 19.7580 -68.7840 128° Southeast 495 570 35,000  Level FlightAware ADS-B
Sun 01:26:27 AM 19.7010 -68.7080 129° Southeast 496 571 35,000  Level FlightAware ADS-B
Sun 01:27:11 AM 19.6380 -68.6220 128° Southeast 497 572 35,000  Level FlightAware ADS-B
Sun 01:27:43 AM 19.5920 -68.5600 128° Southeast 497 572 35,000  Level FlightAware ADS-B
Sun 01:28:29 AM 19.5270 -68.4720 128° Southeast 497 572 35,000  Level FlightAware ADS-B
Sun 01:29:09 AM 19.4700 -68.3960 128° Southeast 498 573 35,000  Level FlightAware ADS-B
Sun 01:29:49 AM 19.4140 -68.3190 128° Southeast 497 572 35,000  Level FlightAware ADS-B
Sun 01:30:34 AM 19.3500 -68.2330 128° Southeast 498 573 35,000  Level FlightAware ADS-B
Sun 01:31:15 AM 19.2910 -68.1540 128° Southeast 498 573 35,000  Level FlightAware ADS-B
Sun 01:31:58 AM 19.2310 -68.0730 128° Southeast 499 574 35,000  Level FlightAware ADS-B
Sun 01:32:40 AM 19.1710 -67.9920 128° Southeast 500 575 35,000  Level FlightAware ADS-B
Sun 01:33:20 AM 19.1130 -67.9140 128° Southeast 501 577 35,000  Level FlightAware ADS-B
Sun 01:34:04 AM 19.0520 -67.8320 128° Southeast 501 577 35,000  Level FlightAware ADS-B
Sun 01:34:43 AM 18.9860 -67.7620 135° Southeast 488 562 35,000  Level FlightAware ADS-B
Sun 01:35:28 AM 18.9100 -67.6940 140° Southeast 489 563 35,000  Level FlightAware ADS-B
Sun 01:36:08 AM 18.8420 -67.6310 139° Southeast 488 562 35,000  Level FlightAware ADS-B
Sun 01:36:43 AM 18.7830 -67.5730 137° Southeast 488 562 35,000  Level FlightAware ADS-B
Sun 01:37:22 AM 18.7180 -67.5110 138° Southeast 488 562 35,000  Level FlightAware ADS-B
Sun 01:38:09 AM 18.6390 -67.4340 137° Southeast 486 559 35,000  Level FlightAware ADS-B
Sun 01:38:49 AM 18.5730 -67.3700 137° Southeast 484 557 35,000  Level FlightAware ADS-B
Sun 01:39:31 AM 18.5030 -67.3030 138° Southeast 484 557 35,000  Level FlightAware ADS-B
Sun 01:40:15 AM 18.4320 -67.2340 137° Southeast 484 557 35,000  Level FlightAware ADS-B
Sun 01:40:56 AM 18.3650 -67.1710 138° Southeast 483 556 35,000  Level FlightAware ADS-B
Sun 01:41:35 AM 18.2970 -67.1070 138° Southeast 483 556 35,000  Level FlightAware ADS-B
Sun 01:42:19 AM 18.2230 -67.0390 139° Southeast 484 557 35,000  Level FlightAware ADS-B
Sun 01:43:03 AM 18.1490 -66.9700 138° Southeast 484 557 35,000  Level FlightAware ADS-B
Sun 01:43:43 AM 18.0820 -66.9070 138° Southeast 484 557 35,000  Level FlightAware ADS-B
Sun 01:44:27 AM 18.0090 -66.8400 139° Southeast 483 556 35,000  Level FlightAware ADS-B
Sun 01:45:08 AM 17.9410 -66.7760 138° Southeast 483 556 35,000  Level FlightAware ADS-B
Sun 01:45:49 AM 17.8720 -66.7120 139° Southeast 483 556 35,000  Level FlightAware ADS-B
Sun 01:46:33 AM 17.7970 -66.6420 138° Southeast 483 556 35,000  Level FlightAware ADS-B
Sun 01:47:13 AM 17.7310 -66.5810 139° Southeast 483 556 35,000  Level FlightAware ADS-B
Sun 01:47:56 AM 17.6590 -66.5150 139° Southeast 483 556 35,000  Level FlightAware ADS-B
Sun 01:48:29 AM 17.6030 -66.4630 138° Southeast 483 556 35,000  Level FlightAware ADS-B
Sun 01:49:13 AM 17.5300 -66.3960 139° Southeast 483 556 35,000  Level FlightAware ADS-B
Sun 01:49:57 AM 17.4550 -66.3270 139° Southeast 483 556 35,000  Level FlightAware ADS-B
Sun 01:50:44 AM 17.3800 -66.2580 139° Southeast 483 556 35,000  Level FlightAware ADS-B
Sun 01:51:21 AM 17.3160 -66.2000 139° Southeast 483 556 35,000  Level FlightAware ADS-B
Sun 01:52:09 AM 17.2350 -66.1250 139° Southeast 483 556 35,000  Level FlightAware ADS-B
Sun 01:52:43 AM 17.1770 -66.0720 139° Southeast 483 556 35,000  Level FlightAware ADS-B
Sun 01:53:24 AM 17.1080 -66.0090 139° Southeast 483 556 35,000  Level FlightAware ADS-B
Sun 01:54:10 AM 17.0380 -65.9440 138° Southeast 483 556 35,000  Level FlightAware ADS-B
Sun 01:54:42 AM 16.9760 -65.8880 139° Southeast 483 556 35,000  Level FlightAware ADS-B
Sun 01:55:28 AM 16.8990 -65.8180 139° Southeast 482 555 35,000  Level FlightAware ADS-B
Sun 01:56:08 AM 16.8420 -65.7650 138° Southeast 482 555 35,000  Level FlightAware ADS-B
Sun 01:56:54 AM 16.7550 -65.6870 139° Southeast 481 554 35,000  Level FlightAware ADS-B
Sun 01:58:10 AM 16.6270 -65.5700 139° Southeast 479 551 35,000  Level FlightAware ADS-B
Sun 01:59:08 AM 16.5360 -65.4870 139° Southeast 480 552 35,000  Level FlightAware ADS-B
Sun 01:59:48 AM 16.4650 -65.4240 140° Southeast 481 554 35,000  Level FlightAware ADS-B
Sun 02:00:30 AM 16.3910 -65.3570 139° Southeast 481 554 35,000  Level FlightAware ADS-B
Sun 02:01:14 AM 16.3280 -65.2990 139° Southeast 481 554 35,000  Level FlightAware ADS-B
Sun 02:01:50 AM 16.2780 -65.2510 137° Southeast 481 554 35,000  Level FlightAware ADS-B
Sun 02:02:30 AM 16.2220 -65.1990 138° Southeast 481 554 35,000  Level FlightAware ADS-B
Sun 02:03:07 AM 16.1700 -65.1500 138° Southeast 481 554 35,000  Level FlightAware ADS-B
Sun 02:03:55 AM 16.1020 -65.0870 138° Southeast 481 554 35,000  Level FlightAware ADS-B
Sun 02:04:29 AM 16.0540 -65.0420 138° Southeast 481 554 35,000  Level FlightAware ADS-B
Sun 02:05:17 AM 15.9870 -64.9790 138° Southeast 481 554 35,000  Level FlightAware ADS-B
Sun 02:05:53 AM 15.9360 -64.9310 138° Southeast 481 554 35,000  Level FlightAware ADS-B
Sun 02:06:41 AM 15.8690 -64.8680 138° Southeast 481 554 35,000  Level FlightAware ADS-B
Sun 02:07:18 AM 15.8170 -64.8190 138° Southeast 481 554 35,000  Level FlightAware ADS-B
Sun 02:08:07 AM 15.7480 -64.7550 138° Southeast 481 554 35,000  Level FlightAware ADS-B
Sun 02:08:43 AM 15.6970 -64.7080 138° Southeast 481 554 35,000  Level FlightAware ADS-B
Sun 02:09:31 AM 15.6300 -64.6450 138° Southeast 481 554 35,000  Level FlightAware ADS-B
Sun 02:10:07 AM 15.5790 -64.5970 138° Southeast 481 554 35,000  Level FlightAware ADS-B
Sun 02:17:00 AM 14.8650 -64.0509 149° Southeast  Level FlightAware Approximate
Sun 02:18:00 AM 14.7527 -63.9825 149° Southeast  Level FlightAware Approximate
Sun 02:19:00 AM 14.6404 -63.9142 150° Southeast  Level FlightAware Approximate
Sun 02:20:00 AM 14.5281 -63.8459 150° Southeast  Level FlightAware Approximate
Sun 02:21:00 AM 14.4158 -63.7777 150° Southeast  Level FlightAware Approximate
Sun 02:22:00 AM 14.3035 -63.7096 150° Southeast  Level FlightAware Approximate
Sun 02:23:00 AM 14.1911 -63.6415 150° Southeast  Level FlightAware Approximate
Sun 02:24:00 AM 14.0790 -63.5731 149° Southeast  Level FlightAware Approximate
Sun 02:25:00 AM 13.9670 -63.5044 149° Southeast  Level FlightAware Approximate
Sun 02:26:00 AM 13.8550 -63.4358 149° Southeast  Level FlightAware Approximate
Sun 02:27:00 AM 13.7430 -63.3673 149° Southeast  Level FlightAware Approximate
Sun 02:28:00 AM 13.6309 -63.2989 149° Southeast  Level FlightAware Approximate
Sun 02:28:26 AM 13.4790 -62.9470 149° Southeast 482 555 35,000  Level FlightAware ADS-B
Sun 02:28:59 AM 13.4330 -62.9110 143° Southeast 482 555 35,000  Level FlightAware ADS-B
Sun 02:29:47 AM 13.3610 -62.8530 142° Southeast 482 555 35,000  Level FlightAware ADS-B
Sun 02:30:27 AM 13.2710 -62.7830 143° Southeast 483 556 35,000  Level FlightAware ADS-B
Sun 02:31:04 AM 13.2150 -62.7380 142° Southeast 483 556 35,000  Level FlightAware ADS-B
Sun 02:31:52 AM 13.1430 -62.6810 142° Southeast 483 556 35,000  Level FlightAware ADS-B
Sun 02:32:32 AM 13.0830 -62.6330 142° Southeast 483 556 35,000  Level FlightAware ADS-B
Sun 02:33:08 AM 13.0300 -62.5900 142° Southeast 483 556 35,000  Level FlightAware ADS-B
Sun 02:33:48 AM 12.9700 -62.5420 142° Southeast 483 556 35,000  Level FlightAware ADS-B
Sun 02:34:36 AM 12.8980 -62.4840 142° Southeast 483 556 35,000  Level FlightAware ADS-B
Sun 02:35:13 AM 12.8420 -62.4400 143° Southeast 483 556 35,000  Level FlightAware ADS-B
Sun 02:36:00 AM 12.7720 -62.3830 142° Southeast 483 556 35,000  Level FlightAware ADS-B
Sun 02:36:36 AM 12.7180 -62.3400 142° Southeast 483 556 35,000  Level FlightAware ADS-B
Sun 02:37:37 AM 12.6270 -62.2670 142° Southeast 483 556 35,000  Level FlightAware ADS-B
Sun 02:40:00 AM 12.3566 -62.1106 151° Southeast  Level Estimated
Sun 02:41:00 AM 12.2431 -62.0451 151° Southeast  Level Estimated
Sun 02:42:00 AM 12.1296 -61.9796 151° Southeast  Level Estimated
Sun 02:43:00 AM 12.0161 -61.9142 151° Southeast  Level Estimated
Sun 02:44:00 AM 11.9025 -61.8489 151° Southeast  Level Estimated
Sun 02:45:00 AM 11.7890 -61.7836 151° Southeast  Level Estimated
Sun 02:46:00 AM 11.6754 -61.7183 151° Southeast  Level Estimated
Sun 02:47:00 AM 11.5619 -61.6531 151° Southeast  Level Estimated
Sun 02:48:00 AM 11.4483 -61.5880 151° Southeast  Level Estimated
Sun 02:49:00 AM 11.3347 -61.5229 151° Southeast  Level Estimated
Sun 02:49:52 AM 11.1930 -61.1650 151° Southeast 480 552 35,000  Level FlightAware ADS-B
Sun 02:50:00 AM 11.2211 -61.4579 151° Southeast  Level Estimated
Sun 02:50:28 AM 11.1240 -61.1110 142° Southeast 481 554 35,000  Level FlightAware ADS-B
Sun 02:51:11 AM 11.0480 -61.0520 143° Southeast 482 555 35,000  Level FlightAware ADS-B
Sun 02:52:36 AM 10.9060 -60.9430 143° Southeast 481 554 35,000  Level FlightAware ADS-B
Sun 02:53:16 AM 10.9220 -60.9560 321° Northwest 481 554 35,000  Level FlightAware ADS-B
Sun 02:54:57 AM 10.6550 -60.7490 151° Southeast 479 551 35,000  Level FlightAware ADS-B
Sun 02:55:00 AM 10.7241 -60.8453 151° Southeast  Level Estimated
Sun 02:55:33 AM 10.6010 -60.7080 143° Southeast 479 551 35,000  Level FlightAware ADS-B
Sun 02:56:09 AM 10.5470 -60.6660 143° Southeast 479 551 35,000  Level FlightAware ADS-B
Sun 02:56:57 AM 10.4740 -60.6110 143° Southeast 479 551 35,000  Level FlightAware ADS-B
Sun 02:57:45 AM 10.4020 -60.5560 143° Southeast 479 551 35,000  Level FlightAware ADS-B
Sun 02:58:21 AM 10.3480 -60.5140 143° Southeast 479 551 35,000  Level FlightAware ADS-B
Sun 02:59:09 AM 10.2760 -60.4590 143° Southeast 479 551 35,000  Level FlightAware ADS-B
Sun 02:59:45 AM 10.2220 -60.4170 143° Southeast 479 551 35,000  Level FlightAware ADS-B
Sun 03:01:48 AM 10.0370 -60.2760 143° Southeast 479 551 35,000 12 Level FlightAware ADS-B
Sun 03:04:00 AM 9.7849 -60.1375 152° Southeast  Level Estimated
Sun 03:05:00 AM 9.6703 -60.0746 152° Southeast  Level Estimated
Sun 03:06:00 AM 9.5557 -60.0118 152° Southeast  Level Estimated
Sun 03:07:00 AM 9.4410 -59.9490 152° Southeast  Level Estimated
Sun 03:08:00 AM 9.3264 -59.8862 152° Southeast  Level Estimated
Sun 03:09:00 AM 9.2118 -59.8235 152° Southeast  Level Estimated
Sun 03:10:00 AM 9.0971 -59.7608 152° Southeast  Level Estimated
Sun 03:11:00 AM 8.9824 -59.6982 152° Southeast  Level Estimated
Sun 03:12:00 AM 8.8677 -59.6356 152° Southeast  Level Estimated
Sun 03:13:00 AM 8.7530 -59.5730 152° Southeast  Level Estimated
Sun 03:14:00 AM 8.6383 -59.5105 152° Southeast  Level Estimated
Sun 03:15:00 AM 8.5236 -59.4480 152° Southeast  Level Estimated
Sun 03:16:00 AM 8.4089 -59.3856 152° Southeast  Level Estimated
Sun 03:17:00 AM 8.2941 -59.3232 152° Southeast  Level Estimated
Sun 03:18:00 AM 8.1794 -59.2608 152° Southeast  Level Estimated
Sun 03:19:00 AM 8.0646 -59.1985 152° Southeast  Level Estimated
Sun 03:20:00 AM 7.9499 -59.1362 152° Southeast  Level Estimated
Sun 03:21:00 AM 7.8351 -59.0739 152° Southeast  Level Estimated
Sun 03:22:00 AM 7.7203 -59.0117 152° Southeast  Level Estimated
Sun 03:23:00 AM 7.6055 -58.9495 152° Southeast  Level Estimated
Sun 03:24:00 AM 7.4907 -58.8873 152° Southeast  Level Estimated
Sun 03:25:00 AM 7.3759 -58.8252 152° Southeast  Level Estimated
Sun 03:26:00 AM 7.2611 -58.7631 152° Southeast  Level Estimated
Sun 03:27:00 AM 7.1463 -58.7010 152° Southeast  Level Estimated
Sun 03:28:00 AM 7.0314 -58.6390 152° Southeast  Level Estimated
Sun 03:29:00 AM 6.9166 -58.5770 152° Southeast  Level Estimated
Sun 03:30:00 AM 6.8018 -58.5150 152° Southeast  Level Estimated
Sun 03:31:00 AM 6.6869 -58.4531 152° Southeast  Level Estimated
Sun 03:32:00 AM 6.5720 -58.3911 152° Southeast  Level Estimated
Sun 03:33:00 AM 6.4571 -58.3293 152° Southeast  Level Estimated
Sun 03:34:00 AM 6.3423 -58.2674 152° Southeast  Level Estimated
Sun 03:35:00 AM 6.2274 -58.2056 152° Southeast  Level Estimated
Sun 03:36:00 AM 6.1125 -58.1438 152° Southeast  Level Estimated
Sun 03:37:00 AM 5.9976 -58.0820 152° Southeast  Level Estimated
Sun 03:38:00 AM 5.8827 -58.0202 152° Southeast  Level Estimated
Sun 03:39:00 AM 5.7677 -57.9585 152° Southeast  Level Estimated
Sun 03:40:00 AM 5.6528 -57.8968 152° Southeast  Level Estimated
Sun 03:41:00 AM 5.5379 -57.8351 152° Southeast  Level Estimated
Sun 03:42:00 AM 5.4230 -57.7735 152° Southeast  Level Estimated
Sun 03:43:00 AM 5.3080 -57.7118 152° Southeast  Level Estimated
Sun 03:44:00 AM 5.1931 -57.6502 152° Southeast  Level Estimated
Sun 03:45:00 AM 5.0781 -57.5886 152° Southeast  Level Estimated
Sun 03:46:00 AM 4.9632 -57.5271 152° Southeast  Level Estimated
Sun 03:47:00 AM 4.8482 -57.4655 152° Southeast  Level Estimated
Sun 03:48:00 AM 4.7332 -57.4040 152° Southeast  Level Estimated
Sun 03:49:00 AM 4.6182 -57.3425 152° Southeast  Level Estimated
Sun 03:50:00 AM 4.5033 -57.2811 152° Southeast  Level Estimated
Sun 03:51:00 AM 4.3883 -57.2196 152° Southeast  Level Estimated
Sun 03:52:00 AM 4.2733 -57.1581 152° Southeast  Level Estimated
Sun 03:53:00 AM 4.1583 -57.0967 152° Southeast  Level Estimated
Sun 03:54:00 AM 4.0433 -57.0353 152° Southeast  Level Estimated
Sun 03:55:00 AM 3.9283 -56.9739 152° Southeast  Level Estimated
Sun 03:56:00 AM 3.8133 -56.9126 152° Southeast  Level Estimated
Sun 03:57:00 AM 3.6982 -56.8512 152° Southeast  Level Estimated
Sun 03:58:00 AM 3.5832 -56.7899 152° Southeast  Level Estimated
Sun 03:59:00 AM 3.4682 -56.7286 152° Southeast  Level Estimated
Sun 04:00:00 AM 3.3532 -56.6673 152° Southeast  Level Estimated
Sun 04:01:00 AM 3.2381 -56.6060 152° Southeast  Level Estimated
Sun 04:02:00 AM 3.1231 -56.5447 152° Southeast  Level Estimated
Sun 04:03:00 AM 3.0081 -56.4834 152° Southeast  Level Estimated
Sun 04:04:00 AM 2.8930 -56.4222 152° Southeast  Level Estimated
Sun 04:05:00 AM 2.7780 -56.3609 152° Southeast  Level Estimated
Sun 04:06:00 AM 2.6629 -56.2997 152° Southeast  Level Estimated
Sun 04:07:00 AM 2.5479 -56.2385 152° Southeast  Level Estimated
Sun 04:08:00 AM 2.4328 -56.1773 152° Southeast  Level Estimated
Sun 04:09:00 AM 2.3178 -56.1161 152° Southeast  Level Estimated
Sun 04:10:00 AM 2.2027 -56.0549 152° Southeast  Level Estimated
Sun 04:11:00 AM 2.0876 -55.9937 152° Southeast  Level Estimated
Sun 04:12:00 AM 1.9726 -55.9325 152° Southeast  Level Estimated
Sun 04:13:00 AM 1.8575 -55.8714 152° Southeast  Level Estimated
Sun 04:14:00 AM 1.7424 -55.8102 152° Southeast  Level Estimated
Sun 04:15:00 AM 1.6274 -55.7491 152° Southeast  Level Estimated
Sun 04:16:00 AM 1.5123 -55.6879 152° Southeast  Level Estimated
Sun 04:17:00 AM 1.3972 -55.6268 152° Southeast  Level Estimated
Sun 04:18:00 AM 1.2821 -55.5657 152° Southeast  Level Estimated
Sun 04:19:00 AM 1.1671 -55.5046 152° Southeast  Level Estimated
Sun 04:20:00 AM 1.0520 -55.4435 152° Southeast  Level Estimated
Sun 04:21:00 AM 0.9369 -55.3823 152° Southeast  Level Estimated
Sun 04:22:00 AM 0.8218 -55.3212 152° Southeast  Level Estimated
Sun 04:23:00 AM 0.7067 -55.2601 152° Southeast  Level Estimated
Sun 04:24:00 AM 0.5917 -55.1990 152° Southeast  Level Estimated
Sun 04:25:00 AM 0.4766 -55.1379 152° Southeast  Level Estimated
Sun 04:26:00 AM 0.3615 -55.0769 152° Southeast  Level Estimated
Sun 04:27:00 AM 0.2464 -55.0158 152° Southeast  Level Estimated
Sun 04:28:00 AM 0.1313 -54.9547 152° Southeast  Level Estimated
Sun 04:29:00 AM 0.0162 -54.8936 152° Southeast  Level Estimated
Sun 04:30:00 AM -0.0989 -54.8325 152° Southeast  Level Estimated
Sun 04:31:00 AM -0.2140 -54.7714 152° Southeast  Level Estimated
Sun 04:32:00 AM -0.3291 -54.7103 152° Southeast  Level Estimated
Sun 04:33:00 AM -0.4441 -54.6492 152° Southeast  Level Estimated
Sun 04:34:00 AM -0.5592 -54.5881 152° Southeast  Level Estimated
Sun 04:35:00 AM -0.6743 -54.5270 152° Southeast  Level Estimated
Sun 04:36:00 AM -0.7894 -54.4659 152° Southeast  Level Estimated
Sun 04:37:00 AM -0.9044 -54.4048 152° Southeast  Level Estimated
Sun 04:38:00 AM -1.0195 -54.3437 152° Southeast  Level Estimated
Sun 04:39:00 AM -1.1346 -54.2826 152° Southeast  Level Estimated
Sun 04:40:00 AM -1.2497 -54.2215 152° Southeast  Level Estimated
Sun 04:41:00 AM -1.3648 -54.1604 152° Southeast  Level Estimated
Sun 04:42:00 AM -1.4799 -54.0992 152° Southeast  Level Estimated
Sun 04:43:00 AM -1.5949 -54.0381 152° Southeast  Level Estimated
Sun 04:44:00 AM -1.7100 -53.9770 152° Southeast  Level Estimated
Sun 04:45:00 AM -1.8251 -53.9158 152° Southeast  Level Estimated
Sun 04:46:00 AM -1.9401 -53.8546 152° Southeast  Level Estimated
Sun 04:47:00 AM -2.0552 -53.7935 152° Southeast  Level Estimated
Sun 04:48:00 AM -2.1703 -53.7323 152° Southeast  Level Estimated
Sun 04:49:00 AM -2.2853 -53.6711 152° Southeast  Level Estimated
Sun 04:50:00 AM -2.4004 -53.6100 152° Southeast  Level Estimated
Sun 04:51:00 AM -2.5154 -53.5488 152° Southeast  Level Estimated
Sun 04:52:00 AM -2.6305 -53.4875 152° Southeast  Level Estimated
Sun 04:53:00 AM -2.7455 -53.4263 152° Southeast  Level Estimated
Sun 04:54:00 AM -2.8606 -53.3651 152° Southeast  Level Estimated
Sun 04:55:00 AM -2.9756 -53.3038 152° Southeast  Level Estimated
Sun 04:56:00 AM -3.0907 -53.2426 152° Southeast  Level Estimated
Sun 04:57:00 AM -3.2057 -53.1813 152° Southeast  Level Estimated
Sun 04:58:00 AM -3.3207 -53.1200 152° Southeast  Level Estimated
Sun 04:59:00 AM -3.4358 -53.0587 152° Southeast  Level Estimated
Sun 05:00:00 AM -3.5508 -52.9974 152° Southeast  Level Estimated
Sun 05:01:00 AM -3.6658 -52.9360 152° Southeast  Level Estimated
Sun 05:02:00 AM -3.7808 -52.8747 152° Southeast  Level Estimated
Sun 05:03:00 AM -3.8958 -52.8133 152° Southeast  Level Estimated
Sun 05:04:00 AM -4.0109 -52.7519 152° Southeast  Level Estimated
Sun 05:05:00 AM -4.1259 -52.6905 152° Southeast  Level Estimated
Sun 05:06:00 AM -4.2409 -52.6291 152° Southeast  Level Estimated
Sun 05:07:00 AM -4.3559 -52.5677 152° Southeast  Level Estimated
Sun 05:08:00 AM -4.4708 -52.5062 152° Southeast  Level Estimated
Sun 05:09:00 AM -4.5858 -52.4448 152° Southeast  Level Estimated
Sun 05:10:00 AM -4.7008 -52.3833 152° Southeast  Level Estimated
Sun 05:11:00 AM -4.8158 -52.3218 152° Southeast  Level Estimated
Sun 05:12:00 AM -4.9307 -52.2602 152° Southeast  Level Estimated
Sun 05:13:00 AM -5.0457 -52.1987 152° Southeast  Level Estimated
Sun 05:14:00 AM -5.1607 -52.1371 152° Southeast  Level Estimated
Sun 05:15:00 AM -5.2756 -52.0755 152° Southeast  Level Estimated
Sun 05:16:00 AM -5.3906 -52.0139 152° Southeast  Level Estimated
Sun 05:17:00 AM -5.5055 -51.9522 152° Southeast  Level Estimated
Sun 05:18:00 AM -5.6204 -51.8905 152° Southeast  Level Estimated
Sun 05:19:00 AM -5.7354 -51.8289 152° Southeast  Level Estimated
Sun 05:20:00 AM -5.8503 -51.7671 152° Southeast  Level Estimated
Sun 05:21:00 AM -5.9652 -51.7054 152° Southeast  Level Estimated
Sun 05:22:00 AM -6.0801 -51.6436 152° Southeast  Level Estimated
Sun 05:23:00 AM -6.1950 -51.5818 152° Southeast  Level Estimated
Sun 05:24:00 AM -6.3099 -51.5200 152° Southeast  Level Estimated
Sun 05:25:00 AM -6.4247 -51.4582 152° Southeast  Level Estimated
Sun 05:26:00 AM -6.5396 -51.3963 152° Southeast  Level Estimated
Sun 05:27:00 AM -6.6545 -51.3344 152° Southeast  Level Estimated
Sun 05:28:00 AM -6.7694 -51.2724 152° Southeast  Level Estimated
Sun 05:29:00 AM -6.8842 -51.2105 152° Southeast  Level Estimated
Sun 05:30:00 AM -6.9991 -51.1485 152° Southeast  Level Estimated
Sun 05:31:00 AM -7.1139 -51.0864 152° Southeast  Level Estimated
Sun 05:32:00 AM -7.2287 -51.0244 152° Southeast  Level Estimated
Sun 05:33:00 AM -7.3435 -50.9623 152° Southeast  Level Estimated
Sun 05:34:00 AM -7.4584 -50.9002 152° Southeast  Level Estimated
Sun 05:35:00 AM -7.5732 -50.8380 152° Southeast  Level Estimated
Sun 05:36:00 AM -7.6879 -50.7758 152° Southeast  Level Estimated
Sun 05:37:00 AM -7.8027 -50.7136 152° Southeast  Level Estimated
Sun 05:38:00 AM -7.9175 -50.6513 152° Southeast  Level Estimated
Sun 05:39:00 AM -8.0323 -50.5891 152° Southeast  Level Estimated
Sun 05:40:00 AM -8.1470 -50.5267 152° Southeast  Level Estimated
Sun 05:41:00 AM -8.2618 -50.4644 152° Southeast  Level Estimated
Sun 05:42:00 AM -8.3765 -50.4020 152° Southeast  Level Estimated
Sun 05:43:00 AM -8.4913 -50.3396 152° Southeast  Level Estimated
Sun 05:44:00 AM -8.6060 -50.2771 152° Southeast  Level Estimated
Sun 05:45:00 AM -8.7207 -50.2146 152° Southeast  Level Estimated
Sun 05:46:00 AM -8.8354 -50.1520 152° Southeast  Level Estimated
Sun 05:47:00 AM -8.9501 -50.0894 152° Southeast  Level Estimated
Sun 05:48:00 AM -9.0648 -50.0268 152° Southeast  Level Estimated
Sun 05:49:00 AM -9.1794 -49.9641 152° Southeast  Level Estimated
Sun 05:50:00 AM -9.2941 -49.9014 152° Southeast  Level Estimated
Sun 05:51:00 AM -9.4087 -49.8387 152° Southeast  Level Estimated
Sun 05:51:50 AM -10.2130 -50.9380 152° Southeast 452 520 37,000  Level FlightAware ADS-B
Sun 05:52:00 AM -9.5234 -49.7759 152° Southeast  Level Estimated
Sun 05:52:40 AM -10.2920 -50.8960 152° Southeast 452 520 37,000  Level FlightAware ADS-B
Sun 05:53:17 AM -10.3500 -50.8650 152° Southeast 452 520 37,000  Level FlightAware ADS-B
Sun 05:54:05 AM -10.4250 -50.8240 152° Southeast 452 520 37,000  Level FlightAware ADS-B
Sun 05:54:41 AM -10.4810 -50.7930 151° Southeast 452 520 37,000  Level FlightAware ADS-B
Sun 05:55:57 AM -10.8680 -50.5990 154° Southeast 453 521 37,000  Level FlightAware ADS-B
Sun 05:56:33 AM -10.7890 -50.6400 333° Northwest 454 522 37,000  Level FlightAware ADS-B
Sun 05:57:18 AM -11.0360 -50.5130 153° Southeast 453 521 37,000  Level FlightAware ADS-B
Sun 05:58:03 AM -11.1150 -50.4720 153° Southeast 453 521 37,000  Level FlightAware ADS-B
Sun 05:58:43 AM -11.1960 -50.4300 153° Southeast 452 520 37,000  Level FlightAware ADS-B
Sun 05:59:38 AM -11.2950 -50.3790 153° Southeast 451 519 37,000  Level FlightAware ADS-B
Sun 06:02:00 AM -11.5453 -50.1952 144° Southeast  Level Estimated
Sun 06:02:13 AM -11.4500 -50.2990 144° Southeast 449 517 37,000  Level FlightAware ADS-B
Sun 06:02:39 AM -11.4610 -50.2930 152° Southeast 37,000  Level FlightAware ADS-B
Sun 06:03:14 AM -11.7010 -50.1700 153° Southeast 447 514 37,000  Level FlightAware ADS-B
Sun 06:04:02 AM -11.7770 -50.1300 153° Southeast 447 514 37,000  Level FlightAware ADS-B
Sun 06:04:59 AM -11.8860 -50.0740 153° Southeast 446 513 37,000  Level FlightAware ADS-B
Sun 06:05:49 AM -11.9800 -50.0260 153° Southeast 445 512 37,000  Level FlightAware ADS-B
Sun 06:06:30 AM -12.0600 -49.9840 153° Southeast 445 512 37,000  Level FlightAware ADS-B
Sun 06:07:20 AM -12.1420 -49.9410 153° Southeast 444 511 37,000  Level FlightAware ADS-B
Sun 06:08:09 AM -12.2180 -49.9020 153° Southeast 444 511 37,000  Level FlightAware ADS-B
Sun 06:08:15 AM -12.1030 -49.9620 333° Northwest 37,000  Level FlightAware ADS-B
Sun 06:08:45 AM -12.3070 -49.8560 153° Southeast 441 507 37,000  Level FlightAware ADS-B
Sun 06:09:25 AM -12.3690 -49.8240 153° Southeast 441 507 37,000  Level FlightAware ADS-B
Sun 06:10:13 AM -12.4430 -49.7850 153° Southeast 441 507 37,000  Level FlightAware ADS-B
Sun 06:10:49 AM -12.4990 -49.7560 153° Southeast 441 507 37,000  Level FlightAware ADS-B
Sun 06:11:30 AM -12.5620 -49.7230 153° Southeast 441 507 37,000  Level FlightAware ADS-B
Sun 06:12:18 AM -12.6360 -49.6850 153° Southeast 441 507 37,000  Level FlightAware ADS-B
Sun 06:12:54 AM -12.6920 -49.6550 152° Southeast 441 507 37,000  Level FlightAware ADS-B
Sun 06:13:43 AM -12.7670 -49.6160 153° Southeast 441 507 37,000  Level FlightAware ADS-B
Sun 06:14:19 AM -12.8230 -49.5870 153° Southeast 441 507 37,000  Level FlightAware ADS-B
Sun 06:15:07 AM -12.8970 -49.5480 153° Southeast 441 507 37,000  Level FlightAware ADS-B
Sun 06:16:25 AM -13.0180 -49.4850 153° Southeast 441 507 37,000  Level FlightAware ADS-B
Sun 06:17:14 AM -13.0930 -49.4450 153° Southeast 441 507 37,000  Level FlightAware ADS-B
Sun 06:17:48 AM -13.1460 -49.4180 154° Southeast 441 507 37,000  Level FlightAware ADS-B
Sun 06:18:22 AM -13.1990 -49.3900 153° Southeast 441 507 37,000  Level FlightAware ADS-B
Sun 06:21:00 AM -13.4685 -49.1718 142° Southeast  Level Estimated
Sun 06:22:00 AM -13.5708 -49.0888 142° Southeast  Level Estimated
Sun 06:23:00 AM -13.6731 -49.0057 142° Southeast  Level Estimated
Sun 06:24:00 AM -13.7753 -48.9226 142° Southeast  Level Estimated
Sun 06:25:00 AM -13.8775 -48.8393 142° Southeast  Level Estimated
Sun 06:25:06 AM -14.1200 -48.9200 142° Southeast 453 521 37,000  Level FlightAware ADS-B
Sun 06:25:44 AM -14.1820 -48.8880 153° Southeast 453 521 37,000  Level FlightAware ADS-B
Sun 06:26:20 AM -14.2390 -48.8580 153° Southeast 453 521 37,000  Level FlightAware ADS-B
Sun 06:27:08 AM -14.3160 -48.8170 153° Southeast 453 521 37,000  Level FlightAware ADS-B
Sun 06:27:47 AM -14.4220 -48.7640 154° Southeast 456 525 37,000  Level FlightAware ADS-B
Sun 06:29:16 AM -14.5800 -48.6820 153° Southeast 456 525 37,000  Level FlightAware ADS-B
Sun 06:29:49 AM -14.6540 -48.6430 153° Southeast 457 526 37,000  Level FlightAware ADS-B
Sun 06:30:19 AM -14.7070 -48.6060 146° Southeast 460 529 37,000  Level FlightAware ADS-B
Sun 06:31:04 AM -14.7770 -48.5460 140° Southeast 461 531 37,000  Level FlightAware ADS-B
Sun 06:31:49 AM -14.8540 -48.4790 140° Southeast 459 528 37,000  Level FlightAware ADS-B
Sun 06:32:29 AM -14.9280 -48.4350 150° Southeast 456 525 37,000  Level FlightAware ADS-B
Sun 06:33:09 AM -15.0050 -48.4000 156° South 456 525 37,000  Level FlightAware ADS-B
Sun 06:33:54 AM -15.0930 -48.3620 157° South 456 525 37,000  Level FlightAware ADS-B
Sun 06:34:29 AM -15.1600 -48.3320 157° South 457 526 37,000  Level FlightAware ADS-B
Sun 06:35:09 AM -15.2400 -48.2970 157° South 458 527 37,000  Level FlightAware ADS-B
Sun 06:35:49 AM -15.3160 -48.2620 156° South 458 527 37,000  Level FlightAware ADS-B
Sun 06:36:34 AM -15.4040 -48.2220 156° South 458 527 37,000  Level FlightAware ADS-B
Sun 06:37:14 AM -15.4800 -48.1880 157° South 459 528 37,000  Level FlightAware ADS-B
Sun 06:37:54 AM -15.5590 -48.1510 156° South 460 529 37,000  Level FlightAware ADS-B
Sun 06:38:40 AM -15.6510 -48.1090 156° South 460 529 37,000  Level FlightAware ADS-B
Sun 06:39:26 AM -15.7390 -48.0690 156° South 461 531 37,000  Level FlightAware ADS-B
Sun 06:40:07 AM -15.8220 -48.0310 156° South 462 532 37,000  Level FlightAware ADS-B
Sun 06:40:49 AM -15.9030 -47.9900 154° Southeast 465 535 37,000  Level FlightAware ADS-B
Sun 06:41:29 AM -15.9770 -47.9470 151° Southeast 465 535 37,000  Level FlightAware ADS-B
Sun 06:42:13 AM -16.0590 -47.8980 150° Southeast 466 536 37,000  Level FlightAware ADS-B
Sun 06:42:54 AM -16.1360 -47.8520 150° Southeast 466 536 37,000  Level FlightAware ADS-B
Sun 06:43:37 AM -16.2170 -47.8030 150° Southeast 466 536 37,000  Level FlightAware ADS-B
Sun 06:44:17 AM -16.2910 -47.7590 150° Southeast 466 536 37,000  Level FlightAware ADS-B
Sun 06:45:00 AM -16.3700 -47.7110 150° Southeast 466 536 37,000  Level FlightAware ADS-B
Sun 06:45:51 AM -16.4660 -47.6530 150° Southeast 466 536 37,000  Level FlightAware ADS-B
Sun 06:46:31 AM -16.5420 -47.6070 150° Southeast 467 537 37,000  Level FlightAware ADS-B
Sun 06:47:11 AM -16.6170 -47.5620 150° Southeast 467 537 37,000  Level FlightAware ADS-B
Sun 06:47:51 AM -16.6890 -47.5180 150° Southeast 467 537 37,000  Level FlightAware ADS-B
Sun 06:48:26 AM -16.7560 -47.4780 150° Southeast 467 537 37,000  Level FlightAware ADS-B
Sun 06:49:06 AM -16.8280 -47.4340 150° Southeast 467 537 37,000  Level FlightAware ADS-B
Sun 06:49:52 AM -16.9190 -47.3790 150° Southeast 469 540 37,000  Level FlightAware ADS-B
Sun 06:50:31 AM -16.9910 -47.3350 150° Southeast 468 539 37,000  Level FlightAware ADS-B
Sun 06:51:10 AM -17.0660 -47.2900 150° Southeast 468 539 37,000  Level FlightAware ADS-B
Sun 06:51:54 AM -17.1470 -47.2400 149° Southeast 468 539 37,000  Level FlightAware ADS-B
Sun 06:52:34 AM -17.2220 -47.1940 150° Southeast 467 537 37,000  Level FlightAware ADS-B
Sun 06:53:12 AM -17.2830 -47.1560 149° Southeast 467 537 37,000  Level FlightAware ADS-B
Sun 06:53:58 AM -17.3800 -47.0980 150° Southeast 468 539 37,000  Level FlightAware ADS-B
Sun 06:54:42 AM -17.4620 -47.0470 149° Southeast 468 539 37,000  Level FlightAware ADS-B
Sun 06:55:18 AM -17.5300 -47.0040 149° Southeast 469 540 37,000  Level FlightAware ADS-B
Sun 06:55:56 AM -17.6000 -46.9610 150° Southeast 469 540 37,000  Level FlightAware ADS-B
Sun 06:56:40 AM -17.6820 -46.9100 149° Southeast 469 540 37,000  Level FlightAware ADS-B
Sun 06:57:20 AM -17.7570 -46.8630 149° Southeast 470 541 37,000  Level FlightAware ADS-B
Sun 06:58:06 AM -17.8440 -46.8090 149° Southeast 469 540 37,000  Level FlightAware ADS-B
Sun 06:58:41 AM -17.9090 -46.7690 150° Southeast 469 540 37,000  Level FlightAware ADS-B
Sun 06:59:23 AM -17.9800 -46.7240 149° Southeast 469 540 37,000  Level FlightAware ADS-B
Sun 07:01:01 AM -18.1350 -46.6260 149° Southeast 469 540 37,000  Level FlightAware ADS-B
Sun 07:02:16 AM -18.2530 -46.5510 149° Southeast 469 540 37,000  Level FlightAware ADS-B
Sun 07:02:52 AM -18.3100 -46.5150 149° Southeast 469 540 37,000  Level FlightAware ADS-B
Sun 07:03:41 AM -18.3870 -46.4660 149° Southeast 469 540 37,000  Level FlightAware ADS-B
Sun 07:04:17 AM -18.4440 -46.4300 149° Southeast 469 540 37,000  Level FlightAware ADS-B
Sun 07:04:53 AM -18.5010 -46.3940 149° Southeast 469 540 37,000  Level FlightAware ADS-B
Sun 07:05:39 AM -18.5740 -46.3480 149° Southeast 469 540 37,000  Level FlightAware ADS-B
Sun 07:06:10 AM -18.7370 -46.2290 145° Southeast 477 549 37,000  Level FlightAware ADS-B
Sun 07:06:50 AM -18.7770 -46.1460 117° Southeast 483 556 37,000  Level FlightAware ADS-B
Sun 07:07:34 AM -18.8140 -46.0480 112° Southeast 484 557 37,000  Level FlightAware ADS-B
Sun 07:08:16 AM -18.8440 -45.9680 112° Southeast 484 557 37,000  Level FlightAware ADS-B
Sun 07:08:56 AM -18.8780 -45.8750 111° Southeast 485 558 37,000 -300 Level FlightAware ADS-B
Sun 07:09:36 AM -18.9130 -45.7800 111° Southeast 486 559 36,600 -1,650 Descending FlightAware ADS-B
Sun 07:10:16 AM -18.9450 -45.6930 111° Southeast 489 563 34,800 -3,035 Descending FlightAware ADS-B
Sun 07:11:01 AM -18.9820 -45.5930 111° Southeast 491 565 32,300 -3,106 Descending FlightAware ADS-B
Sun 07:11:41 AM -19.0150 -45.5040 111° Southeast 481 554 30,400 -2,651 Descending FlightAware ADS-B
Sun 07:12:27 AM -19.0500 -45.4080 111° Southeast 465 535 28,500 -2,471 Descending FlightAware ADS-B
Sun 07:13:06 AM -19.0810 -45.3230 111° Southeast 453 521 26,900 -2,432 Descending FlightAware ADS-B
Sun 07:13:41 AM -19.1070 -45.2510 111° Southeast 442 509 25,500 -2,400 Descending FlightAware ADS-B
Sun 07:14:26 AM -19.1390 -45.1630 111° Southeast 427 491 23,700 -2,400 Descending FlightAware ADS-B
Sun 07:15:06 AM -19.1670 -45.0870 111° Southeast 414 476 22,100 -2,329 Descending FlightAware ADS-B
Sun 07:15:51 AM -19.1970 -45.0020 111° Southeast 400 460 20,400 -2,259 Descending FlightAware ADS-B
Sun 07:16:31 AM -19.2220 -44.9330 111° Southeast 389 448 18,900 -1,484 Descending FlightAware ADS-B
Sun 07:17:24 AM -19.2520 -44.8490 111° Southeast 383 441 18,100 -475 Descending FlightAware ADS-B
Sun 07:18:12 AM -19.2780 -44.7770 111° Southeast 383 441 18,100  Level FlightAware ADS-B
Sun 07:18:48 AM -19.2980 -44.7240 112° Southeast 383 441 18,100 -3,286 Level FlightAware ADS-B
Sun 07:19:36 AM -19.3310 -44.6260 110° East 356 410 13,500 -2,409 Descending FlightAware ADS-B
Sun 07:21:00 AM -19.3670 -44.5080 108° East 306 352 12,800 -950 Descending FlightAware ADS-B
Sun 07:21:36 AM -19.3770 -44.4540 101° East 302 348 11,600 -742 Descending FlightAware ADS-B
Sun 07:22:37 AM -19.3930 -44.3790 103° East 302 348 11,600  Level FlightAware ADS-B
Sun 07:25:00 AM -19.5508 -44.1105 122° Southeast  Level Estimated
Sun 07:26:00 AM -19.6169 -43.9976 122° Southeast  Level Estimated
Sun 07:27:00 AM -19.6338 -43.9689 122° Southeast  Level Estimated
Sun 07:28:00 AM -19.6338 -43.9689 90° East  Level Estimated
Sun 07:29:00 AM -19.6338 -43.9689 90° East  Level Estimated
Sun 07:30:00 AM -19.6338 -43.9689 90° East  Level Estimated
Sun 07:31:00 AM -19.6338 -43.9689 90° East  Level Estimated

Login

Don't have an account? Register now (free) for customized features, flight alerts, and more!